Sea Pearl — V7MQ8 — position and weather

sailwx.info

Track history (hours):
 
Tides and Currents Weather Stations Pressure Air Temp Water Temp Dewpoint Dewpoint Depression Visibility Wind Speed Wind Dir Waves Ship Positions

Sea Pearl

Last reported at 2015-May-26 11:32 UTC. Time now 2015-May-27 21:51 UTC.
Position N 43°49' W 006°10'.

Length 183 m; draft 9.7 m.

Type: Cargo ship. MMSI: 538002888.

Date/timePositionNaut miles runAvg speedWind from/ knotsBaromVisibWave heightAir tempDewpointWater temp
2015-May-26 11:32N 43°49' W 006°10'1211.8
2015-May-26 10:31N 43°48' W 005°54'10 9.3
2015-May-26 09:24N 43°42' W 005°42'7 8.6
2015-May-26 08:32N 43°35' W 005°41'0 0.2
2015-May-26 07:24N 43°35' W 005°41'0 0.0
2015-May-26 06:30N 43°35' W 005°41'0 0.0
2015-May-26 05:30N 43°35' W 005°41'0 0.0
2015-May-26 04:30N 43°35' W 005°41'0 0.0
2015-May-26 03:30N 43°35' W 005°41'0 0.0
2015-May-26 02:30N 43°35' W 005°41'0 0.0
2015-May-26 01:30N 43°35' W 005°41'0 0.0
2015-May-26 00:30N 43°35' W 005°41'0 0.0
2015-May-25 23:24N 43°35' W 005°41'0 0.0
2015-May-25 22:30N 43°35' W 005°41'0 0.0
2015-May-25 21:30N 43°35' W 005°41'0 0.0
2015-May-25 20:30N 43°35' W 005°41'0 0.0
2015-May-25 19:30N 43°35' W 005°41'0 0.0
2015-May-25 18:30N 43°35' W 005°41'0 0.0
2015-May-25 17:30N 43°35' W 005°41'0 0.0
2015-May-25 16:30N 43°35' W 005°41'0 0.0
2015-May-25 15:24N 43°35' W 005°41'0 0.0
2015-May-25 14:24N 43°35' W 005°41'0 0.0
2015-May-25 13:30N 43°35' W 005°41'0 0.0
2015-May-25 12:30N 43°35' W 005°41'0 0.0
2015-May-25 11:30N 43°35' W 005°41'0 0.0
2015-May-25 10:30N 43°35' W 005°41'0 0.0
2015-May-25 09:30N 43°35' W 005°41'0 0.0
2015-May-25 08:30N 43°35' W 005°41'0 0.0
2015-May-25 07:30N 43°35' W 005°41'0 0.0
2015-May-25 06:30N 43°35' W 005°41'0 0.0
2015-May-25 05:30N 43°35' W 005°41'0 0.0
2015-May-25 04:30N 43°35' W 005°41'0 0.0
2015-May-25 03:30N 43°35' W 005°41'0 0.0
2015-May-25 02:30N 43°35' W 005°41'0 0.0
2015-May-25 01:30N 43°35' W 005°41'0 0.0
2015-May-25 00:30N 43°35' W 005°41'405 8.4
2015-May-23 00:33N 50°02' W 002°49'1110.5
2015-May-22 23:33N 50°05' W 002°33'4010.1
2015-May-22 19:33N 50°16' W 001°33'2914.0
2015-May-22 17:28N 50°24' W 000°49'1213.6
2015-May-22 16:33N 50°28' W 000°30'1812.9
2015-May-22 15:08N 50°32' W 000°02'712.1
2015-May-22 14:33N 50°34' E 000°08'1111.4
2015-May-22 13:33N 50°36' E 000°26'1110.7
2015-May-22 12:33N 50°41' E 000°41'1210.6
2015-May-22 11:24N 50°48' E 000°57'1412.2
2015-May-22 10:18N 50°57' E 001°13'1014.1
2015-May-22 09:33N 51°03' E 001°26'1414.4
2015-May-22 08:34N 51°13' E 001°43'1312.9
2015-May-22 07:33N 51°24' E 001°54'1211.8
2015-May-22 06:34N 51°22' E 002°13'1111.0
2015-May-22 05:34N 51°23' E 002°30'1010.4
2015-May-22 04:34N 51°22' E 002°47'1010.1
2015-May-22 03:33N 51°25' E 003°03'10 9.5
2015-May-22 02:34N 51°25' E 003°18'9 9.1
2015-May-22 01:33N 51°25' E 003°32'7 7.3
2015-May-22 00:33N 51°23' E 003°43'9 8.8
2015-May-21 23:33N 51°24' E 003°57'8 8.3
2015-May-21 22:34N 51°24' E 004°10'5 5.0
2015-May-21 21:32N 51°21' E 004°17'0 0.0
2015-May-21 20:32N 51°21' E 004°17'1 0.6
2015-May-21 19:33N 51°20' E 004°18'1 1.1
2015-May-21 18:33N 51°20' E 004°19'0 0.0
2015-May-21 17:33N 51°20' E 004°19'0 0.0
2015-May-21 16:33N 51°20' E 004°19'0 0.0
2015-May-21 15:33N 51°20' E 004°19'0 0.0
2015-May-21 14:33N 51°20' E 004°19'0 0.0
2015-May-21 13:33N 51°20' E 004°19'0 0.0
2015-May-21 12:33N 51°20' E 004°19'0 0.0
2015-May-21 11:30N 51°20' E 004°19'0 0.0
2015-May-21 10:33N 51°20' E 004°19'0 0.0
2015-May-21 09:33N 51°20' E 004°19'0 0.0
2015-May-21 08:33N 51°20' E 004°19'0 0.0
2015-May-21 07:21N 51°20' E 004°19'0 0.0
2015-May-21 06:33N 51°20' E 004°19'0 0.0
2015-May-21 05:33N 51°20' E 004°19'0 0.0
2015-May-21 04:33N 51°20' E 004°19'0 0.0
2015-May-21 03:33N 51°20' E 004°19'0 0.0
2015-May-21 02:30N 51°20' E 004°19'0 0.0
2015-May-21 01:30N 51°20' E 004°19'0 0.0
2015-May-21 00:33N 51°20' E 004°19'0 0.0
2015-May-20 23:27N 51°20' E 004°19'0 0.0
2015-May-20 22:30N 51°20' E 004°19'0 0.0
2015-May-20 21:33N 51°20' E 004°19'0 0.0
2015-May-20 20:33N 51°20' E 004°19'0 0.0
2015-May-20 19:33N 51°20' E 004°19'0 0.0
2015-May-20 18:33N 51°20' E 004°19'0 0.0
2015-May-20 17:33N 51°20' E 004°19'0 0.0
2015-May-20 16:33N 51°20' E 004°19'0 0.0
2015-May-20 15:33N 51°20' E 004°19'0 0.0
2015-May-20 14:33N 51°20' E 004°19'0 0.0
2015-May-20 13:33N 51°20' E 004°19'0 0.0
2015-May-20 12:33N 51°20' E 004°19'0 0.0
2015-May-20 11:33N 51°20' E 004°19'0 0.0
2015-May-20 10:33N 51°20' E 004°19'0 0.0
2015-May-20 09:33N 51°20' E 004°19'0 0.0
2015-May-20 08:33N 51°20' E 004°19'0 0.0
2015-May-20 07:33N 51°20' E 004°19'0 0.0
2015-May-20 06:33N 51°20' E 004°19'0 0.0
2015-May-20 05:33N 51°20' E 004°19'0 0.0
2015-May-20 04:33N 51°20' E 004°19'0 0.0
2015-May-20 03:33N 51°20' E 004°19'0 0.0
2015-May-20 02:33N 51°20' E 004°19'0 0.0
2015-May-20 01:33N 51°20' E 004°19'0 0.0
2015-May-20 00:24N 51°20' E 004°19'0 0.0
2015-May-19 23:33N 51°20' E 004°19'2 1.7
2015-May-19 22:33N 51°21' E 004°17'0 0.5
2015-May-19 21:33N 51°21' E 004°16'5 4.7
2015-May-19 20:32N 51°23' E 004°10'5 5.6
2015-May-19 19:34N 51°25' E 004°02'6 6.3
2015-May-19 18:33N 51°21' E 003°54'7 6.9
2015-May-19 17:33N 51°23' E 003°43'6 6.0
2015-May-19 16:33N 51°25' E 003°34'10 9.8
2015-May-19 15:33N 51°24' E 003°19'1111.3
2015-May-19 14:33N 51°24' E 003°01'1211.5
2015-May-19 13:33N 51°22' E 002°42'5 5.1
2015-May-19 12:33N 51°23' E 002°34'2 2.1
2015-May-19 11:33N 51°22' E 002°31'4 4.0
2015-May-19 10:33N 51°21' E 002°25'7 6.8
2015-May-19 09:33N 51°17' E 002°16'9 8.7
2015-May-19 08:33N 51°12' E 002°05'9 8.6
2015-May-19 07:32N 51°08' E 001°52'8 8.5
2015-May-19 06:34N 51°03' E 001°42'9 9.2
2015-May-19 05:33N 50°56' E 001°32'  
Track history (hours):
 
Tides and Currents Weather Stations Pressure Air Temp Water Temp Dewpoint Dewpoint Depression Visibility Wind Speed Wind Dir Waves Ship Positions

Sea Pearl

Last reported at 2015-May-26 11:32 UTC. Time now 2015-May-27 21:51 UTC.
Position N 43°49' W 006°10'.

Length 183 m; draft 9.7 m.

Type: Cargo ship. MMSI: 538002888.

Date/timePositionNaut miles runAvg speedWind from/ knotsBaromVisibWave heightAir tempDewpointWater temp
2015-May-26 11:32N 43°49' W 006°10'1211.8
2015-May-26 10:31N 43°48' W 005°54'10 9.3
2015-May-26 09:24N 43°42' W 005°42'7 8.6
2015-May-26 08:32N 43°35' W 005°41'0 0.2
2015-May-26 07:24N 43°35' W 005°41'0 0.0
2015-May-26 06:30N 43°35' W 005°41'0 0.0
2015-May-26 05:30N 43°35' W 005°41'0 0.0
2015-May-26 04:30N 43°35' W 005°41'0 0.0
2015-May-26 03:30N 43°35' W 005°41'0 0.0
2015-May-26 02:30N 43°35' W 005°41'0 0.0
2015-May-26 01:30N 43°35' W 005°41'0 0.0
2015-May-26 00:30N 43°35' W 005°41'0 0.0
2015-May-25 23:24N 43°35' W 005°41'0 0.0
2015-May-25 22:30N 43°35' W 005°41'0 0.0
2015-May-25 21:30N 43°35' W 005°41'0 0.0
2015-May-25 20:30N 43°35' W 005°41'0 0.0
2015-May-25 19:30N 43°35' W 005°41'0 0.0
2015-May-25 18:30N 43°35' W 005°41'0 0.0
2015-May-25 17:30N 43°35' W 005°41'0 0.0
2015-May-25 16:30N 43°35' W 005°41'0 0.0
2015-May-25 15:24N 43°35' W 005°41'0 0.0
2015-May-25 14:24N 43°35' W 005°41'0 0.0
2015-May-25 13:30N 43°35' W 005°41'0 0.0
2015-May-25 12:30N 43°35' W 005°41'0 0.0
2015-May-25 11:30N 43°35' W 005°41'0 0.0
2015-May-25 10:30N 43°35' W 005°41'0 0.0
2015-May-25 09:30N 43°35' W 005°41'0 0.0
2015-May-25 08:30N 43°35' W 005°41'0 0.0
2015-May-25 07:30N 43°35' W 005°41'0 0.0
2015-May-25 06:30N 43°35' W 005°41'0 0.0
2015-May-25 05:30N 43°35' W 005°41'0 0.0
2015-May-25 04:30N 43°35' W 005°41'0 0.0
2015-May-25 03:30N 43°35' W 005°41'0 0.0
2015-May-25 02:30N 43°35' W 005°41'0 0.0
2015-May-25 01:30N 43°35' W 005°41'0 0.0
2015-May-25 00:30N 43°35' W 005°41'405 8.4
2015-May-23 00:33N 50°02' W 002°49'1110.5
2015-May-22 23:33N 50°05' W 002°33'4010.1
2015-May-22 19:33N 50°16' W 001°33'2914.0
2015-May-22 17:28N 50°24' W 000°49'1213.6
2015-May-22 16:33N 50°28' W 000°30'1812.9
2015-May-22 15:08N 50°32' W 000°02'712.1
2015-May-22 14:33N 50°34' E 000°08'1111.4
2015-May-22 13:33N 50°36' E 000°26'1110.7
2015-May-22 12:33N 50°41' E 000°41'1210.6
2015-May-22 11:24N 50°48' E 000°57'1412.2
2015-May-22 10:18N 50°57' E 001°13'1014.1
2015-May-22 09:33N 51°03' E 001°26'1414.4
2015-May-22 08:34N 51°13' E 001°43'1312.9
2015-May-22 07:33N 51°24' E 001°54'1211.8
2015-May-22 06:34N 51°22' E 002°13'1111.0
2015-May-22 05:34N 51°23' E 002°30'1010.4
2015-May-22 04:34N 51°22' E 002°47'1010.1
2015-May-22 03:33N 51°25' E 003°03'10 9.5
2015-May-22 02:34N 51°25' E 003°18'9 9.1
2015-May-22 01:33N 51°25' E 003°32'7 7.3
2015-May-22 00:33N 51°23' E 003°43'9 8.8
2015-May-21 23:33N 51°24' E 003°57'8 8.3
2015-May-21 22:34N 51°24' E 004°10'5 5.0
2015-May-21 21:32N 51°21' E 004°17'0 0.0
2015-May-21 20:32N 51°21' E 004°17'1 0.6
2015-May-21 19:33N 51°20' E 004°18'1 1.1
2015-May-21 18:33N 51°20' E 004°19'0 0.0
2015-May-21 17:33N 51°20' E 004°19'0 0.0
2015-May-21 16:33N 51°20' E 004°19'0 0.0
2015-May-21 15:33N 51°20' E 004°19'0 0.0
2015-May-21 14:33N 51°20' E 004°19'0 0.0
2015-May-21 13:33N 51°20' E 004°19'0 0.0
2015-May-21 12:33N 51°20' E 004°19'0 0.0
2015-May-21 11:30N 51°20' E 004°19'0 0.0
2015-May-21 10:33N 51°20' E 004°19'0 0.0
2015-May-21 09:33N 51°20' E 004°19'0 0.0
2015-May-21 08:33N 51°20' E 004°19'0 0.0
2015-May-21 07:21N 51°20' E 004°19'0 0.0
2015-May-21 06:33N 51°20' E 004°19'0 0.0
2015-May-21 05:33N 51°20' E 004°19'0 0.0
2015-May-21 04:33N 51°20' E 004°19'0 0.0
2015-May-21 03:33N 51°20' E 004°19'0 0.0
2015-May-21 02:30N 51°20' E 004°19'0 0.0
2015-May-21 01:30N 51°20' E 004°19'0 0.0
2015-May-21 00:33N 51°20' E 004°19'0 0.0
2015-May-20 23:27N 51°20' E 004°19'0 0.0
2015-May-20 22:30N 51°20' E 004°19'0 0.0
2015-May-20 21:33N 51°20' E 004°19'0 0.0
2015-May-20 20:33N 51°20' E 004°19'0 0.0
2015-May-20 19:33N 51°20' E 004°19'0 0.0
2015-May-20 18:33N 51°20' E 004°19'0 0.0
2015-May-20 17:33N 51°20' E 004°19'0 0.0
2015-May-20 16:33N 51°20' E 004°19'0 0.0
2015-May-20 15:33N 51°20' E 004°19'0 0.0
2015-May-20 14:33N 51°20' E 004°19'0 0.0
2015-May-20 13:33N 51°20' E 004°19'0 0.0
2015-May-20 12:33N 51°20' E 004°19'0 0.0
2015-May-20 11:33N 51°20' E 004°19'0 0.0
2015-May-20 10:33N 51°20' E 004°19'0 0.0
2015-May-20 09:33N 51°20' E 004°19'0 0.0
2015-May-20 08:33N 51°20' E 004°19'0 0.0
2015-May-20 07:33N 51°20' E 004°19'0 0.0
2015-May-20 06:33N 51°20' E 004°19'0 0.0
2015-May-20 05:33N 51°20' E 004°19'0 0.0
2015-May-20 04:33N 51°20' E 004°19'0 0.0
2015-May-20 03:33N 51°20' E 004°19'0 0.0
2015-May-20 02:33N 51°20' E 004°19'0 0.0
2015-May-20 01:33N 51°20' E 004°19'0 0.0
2015-May-20 00:24N 51°20' E 004°19'0 0.0
2015-May-19 23:33N 51°20' E 004°19'2 1.7
2015-May-19 22:33N 51°21' E 004°17'0 0.5
2015-May-19 21:33N 51°21' E 004°16'5 4.7
2015-May-19 20:32N 51°23' E 004°10'5 5.6
2015-May-19 19:34N 51°25' E 004°02'6 6.3
2015-May-19 18:33N 51°21' E 003°54'7 6.9
2015-May-19 17:33N 51°23' E 003°43'6 6.0
2015-May-19 16:33N 51°25' E 003°34'10 9.8
2015-May-19 15:33N 51°24' E 003°19'1111.3
2015-May-19 14:33N 51°24' E 003°01'1211.5
2015-May-19 13:33N 51°22' E 002°42'5 5.1
2015-May-19 12:33N 51°23' E 002°34'2 2.1
2015-May-19 11:33N 51°22' E 002°31'4 4.0
2015-May-19 10:33N 51°21' E 002°25'7 6.8
2015-May-19 09:33N 51°17' E 002°16'9 8.7
2015-May-19 08:33N 51°12' E 002°05'9 8.6
2015-May-19 07:32N 51°08' E 001°52'8 8.5
2015-May-19 06:34N 51°03' E 001°42'9 9.2
2015-May-19 05:33N 50°56' E 001°32'  

Dump ship's entire track history